sensor_id;sensor_type;location;lat;lon;timestamp;temperature;humidity
32534;DHT22;18973;48.580;8.912;2022-07-06T00:01:25;19.00;76.00
32534;DHT22;18973;48.580;8.912;2022-07-06T00:03:51;19.00;76.20
32534;DHT22;18973;48.580;8.912;2022-07-06T00:06:16;19.00;76.40
32534;DHT22;18973;48.580;8.912;2022-07-06T00:08:43;18.90;76.80
32534;DHT22;18973;48.580;8.912;2022-07-06T00:11:09;18.90;76.90
32534;DHT22;18973;48.580;8.912;2022-07-06T00:13:35;18.90;76.90
32534;DHT22;18973;48.580;8.912;2022-07-06T00:16:01;18.90;77.20
32534;DHT22;18973;48.580;8.912;2022-07-06T00:18:27;18.80;77.10
32534;DHT22;18973;48.580;8.912;2022-07-06T00:20:53;18.80;77.30
32534;DHT22;18973;48.580;8.912;2022-07-06T00:23:19;18.80;77.10
32534;DHT22;18973;48.580;8.912;2022-07-06T00:25:44;18.80;77.60
32534;DHT22;18973;48.580;8.912;2022-07-06T00:28:10;18.80;78.00
32534;DHT22;18973;48.580;8.912;2022-07-06T00:30:36;18.70;77.90
32534;DHT22;18973;48.580;8.912;2022-07-06T00:33:02;18.70;77.80
32534;DHT22;18973;48.580;8.912;2022-07-06T00:35:28;18.70;77.80
32534;DHT22;18973;48.580;8.912;2022-07-06T00:37:54;18.80;78.30
32534;DHT22;18973;48.580;8.912;2022-07-06T00:40:20;18.70;77.80
32534;DHT22;18973;48.580;8.912;2022-07-06T00:42:47;18.70;78.30
32534;DHT22;18973;48.580;8.912;2022-07-06T00:45:14;18.60;78.20
32534;DHT22;18973;48.580;8.912;2022-07-06T00:47:40;18.60;78.70
32534;DHT22;18973;48.580;8.912;2022-07-06T00:50:08;18.60;78.90
32534;DHT22;18973;48.580;8.912;2022-07-06T00:52:41;18.70;78.10
32534;DHT22;18973;48.580;8.912;2022-07-06T00:55:09;18.70;78.80
32534;DHT22;18973;48.580;8.912;2022-07-06T00:57:38;18.60;79.50
32534;DHT22;18973;48.580;8.912;2022-07-06T01:00:07;18.50;79.50
32534;DHT22;18973;48.580;8.912;2022-07-06T01:02:34;18.60;79.70
32534;DHT22;18973;48.580;8.912;2022-07-06T01:05:04;18.50;81.10
32534;DHT22;18973;48.580;8.912;2022-07-06T01:07:31;18.40;81.70
32534;DHT22;18973;48.580;8.912;2022-07-06T01:09:57;18.40;82.60
32534;DHT22;18973;48.580;8.912;2022-07-06T01:12:23;18.40;82.00
32534;DHT22;18973;48.580;8.912;2022-07-06T01:14:49;18.20;81.70
32534;DHT22;18973;48.580;8.912;2022-07-06T01:17:16;18.20;82.20
32534;DHT22;18973;48.580;8.912;2022-07-06T01:19:43;18.40;81.20
32534;DHT22;18973;48.580;8.912;2022-07-06T01:22:09;18.00;82.30
32534;DHT22;18973;48.580;8.912;2022-07-06T01:24:36;18.10;82.50
32534;DHT22;18973;48.580;8.912;2022-07-06T01:27:03;17.80;84.20
32534;DHT22;18973;48.580;8.912;2022-07-06T01:29:29;17.60;84.20
32534;DHT22;18973;48.580;8.912;2022-07-06T01:31:55;17.50;85.40
32534;DHT22;18973;48.580;8.912;2022-07-06T01:34:21;17.50;85.90
32534;DHT22;18973;48.580;8.912;2022-07-06T01:36:47;17.50;86.70
32534;DHT22;18973;48.580;8.912;2022-07-06T01:39:13;17.50;87.40
32534;DHT22;18973;48.580;8.912;2022-07-06T01:41:39;17.60;86.30
32534;DHT22;18973;48.580;8.912;2022-07-06T01:44:05;17.60;86.70
32534;DHT22;18973;48.580;8.912;2022-07-06T01:46:34;17.60;86.40
32534;DHT22;18973;48.580;8.912;2022-07-06T01:49:03;17.60;85.90
32534;DHT22;18973;48.580;8.912;2022-07-06T01:51:29;17.60;86.60
32534;DHT22;18973;48.580;8.912;2022-07-06T01:53:55;17.50;86.30
32534;DHT22;18973;48.580;8.912;2022-07-06T01:56:21;17.60;86.00
32534;DHT22;18973;48.580;8.912;2022-07-06T01:58:47;17.60;85.80
32534;DHT22;18973;48.580;8.912;2022-07-06T02:01:18;17.60;86.50
32534;DHT22;18973;48.580;8.912;2022-07-06T02:03:44;17.60;85.60
32534;DHT22;18973;48.580;8.912;2022-07-06T02:06:10;17.60;86.50
32534;DHT22;18973;48.580;8.912;2022-07-06T02:08:39;17.60;87.20
32534;DHT22;18973;48.580;8.912;2022-07-06T02:11:06;17.40;88.00
32534;DHT22;18973;48.580;8.912;2022-07-06T02:13:33;17.20;89.00
32534;DHT22;18973;48.580;8.912;2022-07-06T02:15:59;17.20;90.00
32534;DHT22;18973;48.580;8.912;2022-07-06T02:18:25;17.10;90.40
32534;DHT22;18973;48.580;8.912;2022-07-06T02:20:50;17.10;90.60
32534;DHT22;18973;48.580;8.912;2022-07-06T02:23:16;16.90;91.30
32534;DHT22;18973;48.580;8.912;2022-07-06T02:25:42;16.70;91.80
32534;DHT22;18973;48.580;8.912;2022-07-06T02:28:07;16.70;92.20
32534;DHT22;18973;48.580;8.912;2022-07-06T02:30:33;16.80;92.10
32534;DHT22;18973;48.580;8.912;2022-07-06T02:32:59;16.60;92.10
32534;DHT22;18973;48.580;8.912;2022-07-06T02:35:25;16.60;92.60
32534;DHT22;18973;48.580;8.912;2022-07-06T02:37:51;16.50;92.90
32534;DHT22;18973;48.580;8.912;2022-07-06T02:40:16;16.60;93.10
32534;DHT22;18973;48.580;8.912;2022-07-06T02:42:42;16.60;93.50
32534;DHT22;18973;48.580;8.912;2022-07-06T02:45:08;16.70;93.80
32534;DHT22;18973;48.580;8.912;2022-07-06T02:47:34;16.60;93.10
32534;DHT22;18973;48.580;8.912;2022-07-06T02:50:00;16.60;92.70
32534;DHT22;18973;48.580;8.912;2022-07-06T02:52:26;16.70;93.10
32534;DHT22;18973;48.580;8.912;2022-07-06T02:54:55;16.80;92.90
32534;DHT22;18973;48.580;8.912;2022-07-06T02:57:21;16.80;92.70
32534;DHT22;18973;48.580;8.912;2022-07-06T02:59:47;16.80;92.70
32534;DHT22;18973;48.580;8.912;2022-07-06T03:02:15;16.70;93.10
32534;DHT22;18973;48.580;8.912;2022-07-06T03:04:41;16.60;93.40
32534;DHT22;18973;48.580;8.912;2022-07-06T03:07:07;16.60;93.50
32534;DHT22;18973;48.580;8.912;2022-07-06T03:09:33;16.70;93.80
32534;DHT22;18973;48.580;8.912;2022-07-06T03:11:59;16.60;93.70
32534;DHT22;18973;48.580;8.912;2022-07-06T03:14:25;16.70;93.90
32534;DHT22;18973;48.580;8.912;2022-07-06T03:16:52;16.60;94.10
32534;DHT22;18973;48.580;8.912;2022-07-06T03:19:18;16.70;94.40
32534;DHT22;18973;48.580;8.912;2022-07-06T03:21:44;16.70;94.50
32534;DHT22;18973;48.580;8.912;2022-07-06T03:24:10;16.60;94.40
32534;DHT22;18973;48.580;8.912;2022-07-06T03:26:36;16.60;94.70
32534;DHT22;18973;48.580;8.912;2022-07-06T03:29:02;16.60;94.70
32534;DHT22;18973;48.580;8.912;2022-07-06T03:31:28;16.60;95.10
32534;DHT22;18973;48.580;8.912;2022-07-06T03:33:53;16.60;95.00
32534;DHT22;18973;48.580;8.912;2022-07-06T03:36:19;16.60;95.30
32534;DHT22;18973;48.580;8.912;2022-07-06T03:38:45;16.70;95.50
32534;DHT22;18973;48.580;8.912;2022-07-06T03:41:11;16.70;95.60
32534;DHT22;18973;48.580;8.912;2022-07-06T03:43:36;16.60;95.70
32534;DHT22;18973;48.580;8.912;2022-07-06T03:46:03;16.60;95.90
32534;DHT22;18973;48.580;8.912;2022-07-06T03:48:29;16.60;96.40
32534;DHT22;18973;48.580;8.912;2022-07-06T03:50:55;16.60;96.30
32534;DHT22;18973;48.580;8.912;2022-07-06T03:53:21;16.50;96.50
32534;DHT22;18973;48.580;8.912;2022-07-06T03:55:46;16.70;96.60
32534;DHT22;18973;48.580;8.912;2022-07-06T03:58:31;16.70;97.00
32534;DHT22;18973;48.580;8.912;2022-07-06T04:00:57;16.60;97.20
32534;DHT22;18973;48.580;8.912;2022-07-06T04:03:23;16.60;97.60
32534;DHT22;18973;48.580;8.912;2022-07-06T04:05:48;16.60;97.80
32534;DHT22;18973;48.580;8.912;2022-07-06T04:08:14;16.60;97.90
32534;DHT22;18973;48.580;8.912;2022-07-06T04:10:40;16.70;97.90
32534;DHT22;18973;48.580;8.912;2022-07-06T04:13:06;16.60;98.30
32534;DHT22;18973;48.580;8.912;2022-07-06T04:15:31;16.60;98.10
32534;DHT22;18973;48.580;8.912;2022-07-06T04:17:57;16.60;98.40
32534;DHT22;18973;48.580;8.912;2022-07-06T04:20:24;16.60;98.70
32534;DHT22;18973;48.580;8.912;2022-07-06T04:22:51;16.60;98.80
32534;DHT22;18973;48.580;8.912;2022-07-06T04:25:20;16.30;99.10
32534;DHT22;18973;48.580;8.912;2022-07-06T04:27:45;16.30;99.70
32534;DHT22;18973;48.580;8.912;2022-07-06T04:30:11;16.30;99.90
32534;DHT22;18973;48.580;8.912;2022-07-06T04:32:37;16.20;99.90
32534;DHT22;18973;48.580;8.912;2022-07-06T04:35:04;16.30;99.90
32534;DHT22;18973;48.580;8.912;2022-07-06T04:37:30;16.30;99.90
32534;DHT22;18973;48.580;8.912;2022-07-06T04:39:56;16.30;99.90
32534;DHT22;18973;48.580;8.912;2022-07-06T04:42:21;16.30;99.90
32534;DHT22;18973;48.580;8.912;2022-07-06T04:44:47;16.40;99.90
32534;DHT22;18973;48.580;8.912;2022-07-06T04:47:15;16.40;99.90
32534;DHT22;18973;48.580;8.912;2022-07-06T04:49:41;16.50;99.90
32534;DHT22;18973;48.580;8.912;2022-07-06T04:52:07;16.40;99.90
32534;DHT22;18973;48.580;8.912;2022-07-06T04:54:33;16.60;99.90
32534;DHT22;18973;48.580;8.912;2022-07-06T04:56:59;16.50;99.90
32534;DHT22;18973;48.580;8.912;2022-07-06T04:59:24;16.60;99.90
32534;DHT22;18973;48.580;8.912;2022-07-06T05:01:50;16.70;99.90
32534;DHT22;18973;48.580;8.912;2022-07-06T05:04:16;16.60;99.90
32534;DHT22;18973;48.580;8.912;2022-07-06T05:06:45;16.60;99.90
32534;DHT22;18973;48.580;8.912;2022-07-06T05:09:11;16.70;99.90
32534;DHT22;18973;48.580;8.912;2022-07-06T05:11:37;16.60;99.90
32534;DHT22;18973;48.580;8.912;2022-07-06T05:14:04;16.80;99.90
32534;DHT22;18973;48.580;8.912;2022-07-06T05:16:30;16.90;99.90
32534;DHT22;18973;48.580;8.912;2022-07-06T05:18:56;16.80;99.90
32534;DHT22;18973;48.580;8.912;2022-07-06T05:21:21;16.60;99.90
32534;DHT22;18973;48.580;8.912;2022-07-06T05:23:47;16.50;99.90
32534;DHT22;18973;48.580;8.912;2022-07-06T05:26:13;16.60;99.90
32534;DHT22;18973;48.580;8.912;2022-07-06T05:28:39;16.70;99.90
32534;DHT22;18973;48.580;8.912;2022-07-06T05:31:04;16.60;99.90
32534;DHT22;18973;48.580;8.912;2022-07-06T05:33:31;16.80;99.90
32534;DHT22;18973;48.580;8.912;2022-07-06T05:35:56;16.80;99.90
32534;DHT22;18973;48.580;8.912;2022-07-06T05:38:22;17.00;99.90
32534;DHT22;18973;48.580;8.912;2022-07-06T05:40:48;17.00;99.90
32534;DHT22;18973;48.580;8.912;2022-07-06T05:43:14;17.10;99.90
32534;DHT22;18973;48.580;8.912;2022-07-06T05:45:39;17.30;99.90
32534;DHT22;18973;48.580;8.912;2022-07-06T05:48:05;17.20;99.90
32534;DHT22;18973;48.580;8.912;2022-07-06T05:50:49;17.10;99.90
32534;DHT22;18973;48.580;8.912;2022-07-06T05:53:15;17.20;99.90
32534;DHT22;18973;48.580;8.912;2022-07-06T05:55:40;17.20;99.90
32534;DHT22;18973;48.580;8.912;2022-07-06T05:58:07;17.30;99.90
32534;DHT22;18973;48.580;8.912;2022-07-06T06:00:33;17.40;99.90
32534;DHT22;18973;48.580;8.912;2022-07-06T06:02:59;17.50;99.90
32534;DHT22;18973;48.580;8.912;2022-07-06T06:05:25;17.80;99.90
32534;DHT22;18973;48.580;8.912;2022-07-06T06:07:51;17.90;99.90
32534;DHT22;18973;48.580;8.912;2022-07-06T06:10:19;18.10;99.90
32534;DHT22;18973;48.580;8.912;2022-07-06T06:12:45;18.10;99.90
32534;DHT22;18973;48.580;8.912;2022-07-06T06:15:11;18.20;99.90
32534;DHT22;18973;48.580;8.912;2022-07-06T06:17:38;18.40;99.90
32534;DHT22;18973;48.580;8.912;2022-07-06T06:20:08;18.40;99.90
32534;DHT22;18973;48.580;8.912;2022-07-06T06:22:52;18.40;99.90
32534;DHT22;18973;48.580;8.912;2022-07-06T06:25:32;18.40;99.90
32534;DHT22;18973;48.580;8.912;2022-07-06T06:27:58;18.50;99.50
32534;DHT22;18973;48.580;8.912;2022-07-06T06:30:24;18.60;99.10
32534;DHT22;18973;48.580;8.912;2022-07-06T06:32:50;18.60;98.90
32534;DHT22;18973;48.580;8.912;2022-07-06T06:35:16;18.60;98.20
32534;DHT22;18973;48.580;8.912;2022-07-06T06:37:42;18.80;99.10
32534;DHT22;18973;48.580;8.912;2022-07-06T06:40:09;18.90;98.80
32534;DHT22;18973;48.580;8.912;2022-07-06T06:42:38;19.00;97.70
32534;DHT22;18973;48.580;8.912;2022-07-06T06:45:05;19.10;97.40
32534;DHT22;18973;48.580;8.912;2022-07-06T06:47:31;19.30;98.20
32534;DHT22;18973;48.580;8.912;2022-07-06T06:49:56;19.50;97.40
32534;DHT22;18973;48.580;8.912;2022-07-06T06:52:22;19.30;96.30
32534;DHT22;18973;48.580;8.912;2022-07-06T06:54:48;19.20;95.50
32534;DHT22;18973;48.580;8.912;2022-07-06T06:57:14;19.20;96.30
32534;DHT22;18973;48.580;8.912;2022-07-06T06:59:40;19.10;96.60
32534;DHT22;18973;48.580;8.912;2022-07-06T07:02:06;19.30;97.40
32534;DHT22;18973;48.580;8.912;2022-07-06T07:04:32;19.50;97.40
32534;DHT22;18973;48.580;8.912;2022-07-06T07:06:57;19.60;97.00
32534;DHT22;18973;48.580;8.912;2022-07-06T07:09:24;19.90;95.90
32534;DHT22;18973;48.580;8.912;2022-07-06T07:11:50;19.90;95.60
32534;DHT22;18973;48.580;8.912;2022-07-06T07:14:16;20.10;95.80
32534;DHT22;18973;48.580;8.912;2022-07-06T07:16:42;20.20;95.80
32534;DHT22;18973;48.580;8.912;2022-07-06T07:19:07;20.40;95.90
32534;DHT22;18973;48.580;8.912;2022-07-06T07:21:33;20.60;95.40
32534;DHT22;18973;48.580;8.912;2022-07-06T07:23:59;20.80;94.70
32534;DHT22;18973;48.580;8.912;2022-07-06T07:26:25;21.00;94.80
32534;DHT22;18973;48.580;8.912;2022-07-06T07:28:50;21.10;94.70
32534;DHT22;18973;48.580;8.912;2022-07-06T07:31:16;21.20;93.40
32534;DHT22;18973;48.580;8.912;2022-07-06T07:33:42;21.40;94.00
32534;DHT22;18973;48.580;8.912;2022-07-06T07:36:07;21.60;93.70
32534;DHT22;18973;48.580;8.912;2022-07-06T07:38:33;21.80;92.80
32534;DHT22;18973;48.580;8.912;2022-07-06T07:40:59;21.70;92.00
32534;DHT22;18973;48.580;8.912;2022-07-06T07:43:25;21.90;92.50
32534;DHT22;18973;48.580;8.912;2022-07-06T07:45:50;22.20;92.40
32534;DHT22;18973;48.580;8.912;2022-07-06T07:48:16;22.40;92.30
32534;DHT22;18973;48.580;8.912;2022-07-06T07:50:42;22.50;92.20
32534;DHT22;18973;48.580;8.912;2022-07-06T07:53:08;22.80;90.70
32534;DHT22;18973;48.580;8.912;2022-07-06T07:55:34;22.90;90.20
32534;DHT22;18973;48.580;8.912;2022-07-06T07:58:00;23.00;90.40
32534;DHT22;18973;48.580;8.912;2022-07-06T08:00:26;23.20;90.50
32534;DHT22;18973;48.580;8.912;2022-07-06T08:02:52;23.30;90.70
32534;DHT22;18973;48.580;8.912;2022-07-06T08:05:19;23.40;88.70
32534;DHT22;18973;48.580;8.912;2022-07-06T08:07:45;23.50;89.50
32534;DHT22;18973;48.580;8.912;2022-07-06T08:10:11;23.70;88.00
32534;DHT22;18973;48.580;8.912;2022-07-06T08:12:37;23.80;87.50
32534;DHT22;18973;48.580;8.912;2022-07-06T08:15:04;23.80;82.00
32534;DHT22;18973;48.580;8.912;2022-07-06T08:17:30;23.80;84.50
32534;DHT22;18973;48.580;8.912;2022-07-06T08:19:56;23.80;83.20
32534;DHT22;18973;48.580;8.912;2022-07-06T08:22:22;24.10;83.60
32534;DHT22;18973;48.580;8.912;2022-07-06T08:24:48;24.10;81.60
32534;DHT22;18973;48.580;8.912;2022-07-06T08:27:14;24.40;82.50
32534;DHT22;18973;48.580;8.912;2022-07-06T08:29:40;24.20;79.30
32534;DHT22;18973;48.580;8.912;2022-07-06T08:32:06;24.10;80.40
32534;DHT22;18973;48.580;8.912;2022-07-06T08:34:32;24.10;79.60
32534;DHT22;18973;48.580;8.912;2022-07-06T08:36:58;24.40;80.80
32534;DHT22;18973;48.580;8.912;2022-07-06T08:39:23;24.70;81.10
32534;DHT22;18973;48.580;8.912;2022-07-06T08:41:51;25.00;76.80
32534;DHT22;18973;48.580;8.912;2022-07-06T08:44:17;25.10;75.40
32534;DHT22;18973;48.580;8.912;2022-07-06T08:46:44;25.40;73.80
32534;DHT22;18973;48.580;8.912;2022-07-06T08:49:13;25.60;75.70
32534;DHT22;18973;48.580;8.912;2022-07-06T08:51:40;25.50;73.20
32534;DHT22;18973;48.580;8.912;2022-07-06T08:54:07;25.70;73.50
32534;DHT22;18973;48.580;8.912;2022-07-06T08:56:33;25.90;74.60
32534;DHT22;18973;48.580;8.912;2022-07-06T08:58:59;26.00;67.70
32534;DHT22;18973;48.580;8.912;2022-07-06T09:01:25;25.90;69.50
32534;DHT22;18973;48.580;8.912;2022-07-06T09:03:52;25.90;68.00
32534;DHT22;18973;48.580;8.912;2022-07-06T09:06:26;26.10;71.70
32534;DHT22;18973;48.580;8.912;2022-07-06T09:08:56;26.40;68.20
32534;DHT22;18973;48.580;8.912;2022-07-06T09:11:24;26.70;70.60
32534;DHT22;18973;48.580;8.912;2022-07-06T09:13:51;26.90;70.10
32534;DHT22;18973;48.580;8.912;2022-07-06T09:16:17;27.00;67.10
32534;DHT22;18973;48.580;8.912;2022-07-06T09:18:46;27.00;68.20
32534;DHT22;18973;48.580;8.912;2022-07-06T09:21:22;27.10;63.60
32534;DHT22;18973;48.580;8.912;2022-07-06T09:23:56;27.00;64.50
32534;DHT22;18973;48.580;8.912;2022-07-06T09:26:22;26.90;64.00
32534;DHT22;18973;48.580;8.912;2022-07-06T09:28:48;27.00;68.50
32534;DHT22;18973;48.580;8.912;2022-07-06T09:31:14;27.00;65.20
32534;DHT22;18973;48.580;8.912;2022-07-06T09:33:56;26.90;65.80
32534;DHT22;18973;48.580;8.912;2022-07-06T09:36:42;26.90;65.10
32534;DHT22;18973;48.580;8.912;2022-07-06T09:41:52;27.00;67.10
32534;DHT22;18973;48.580;8.912;2022-07-06T09:44:31;27.20;66.60
32534;DHT22;18973;48.580;8.912;2022-07-06T09:46:59;27.10;61.30
32534;DHT22;18973;48.580;8.912;2022-07-06T09:49:26;26.90;61.50
32534;DHT22;18973;48.580;8.912;2022-07-06T09:51:57;27.20;62.00
32534;DHT22;18973;48.580;8.912;2022-07-06T09:54:24;27.30;61.60
32534;DHT22;18973;48.580;8.912;2022-07-06T09:56:51;26.90;62.60
32534;DHT22;18973;48.580;8.912;2022-07-06T09:59:23;26.90;62.60
32534;DHT22;18973;48.580;8.912;2022-07-06T10:01:54;26.70;63.80
32534;DHT22;18973;48.580;8.912;2022-07-06T10:04:20;26.60;64.00
32534;DHT22;18973;48.580;8.912;2022-07-06T10:06:47;26.50;63.60
32534;DHT22;18973;48.580;8.912;2022-07-06T10:09:14;26.50;63.70
32534;DHT22;18973;48.580;8.912;2022-07-06T10:11:47;26.50;63.60
32534;DHT22;18973;48.580;8.912;2022-07-06T10:14:18;26.90;66.20
32534;DHT22;18973;48.580;8.912;2022-07-06T10:16:46;27.30;66.90
32534;DHT22;18973;48.580;8.912;2022-07-06T10:19:12;27.70;64.40
32534;DHT22;18973;48.580;8.912;2022-07-06T10:21:40;27.50;62.10
32534;DHT22;18973;48.580;8.912;2022-07-06T10:24:07;27.40;61.80
32534;DHT22;18973;48.580;8.912;2022-07-06T10:26:34;27.50;62.30
32534;DHT22;18973;48.580;8.912;2022-07-06T10:29:02;27.30;60.50
32534;DHT22;18973;48.580;8.912;2022-07-06T10:31:28;26.60;61.10
32534;DHT22;18973;48.580;8.912;2022-07-06T10:33:57;26.60;63.70
32534;DHT22;18973;48.580;8.912;2022-07-06T10:36:24;27.00;63.40
32534;DHT22;18973;48.580;8.912;2022-07-06T10:38:51;27.10;63.10
32534;DHT22;18973;48.580;8.912;2022-07-06T10:41:17;27.20;63.10
32534;DHT22;18973;48.580;8.912;2022-07-06T10:43:45;26.90;62.90
32534;DHT22;18973;48.580;8.912;2022-07-06T10:46:14;26.60;63.40
32534;DHT22;18973;48.580;8.912;2022-07-06T10:48:41;26.60;65.10
32534;DHT22;18973;48.580;8.912;2022-07-06T10:51:08;26.10;62.20
32534;DHT22;18973;48.580;8.912;2022-07-06T10:53:35;25.80;63.40
32534;DHT22;18973;48.580;8.912;2022-07-06T10:56:05;25.70;65.30
32534;DHT22;18973;48.580;8.912;2022-07-06T10:58:50;25.60;67.50
32534;DHT22;18973;48.580;8.912;2022-07-06T11:01:18;25.40;68.20
32534;DHT22;18973;48.580;8.912;2022-07-06T11:06:25;25.10;69.90
32534;DHT22;18973;48.580;8.912;2022-07-06T11:19:22;25.20;71.40
32534;DHT22;18973;48.580;8.912;2022-07-06T11:21:57;25.70;73.00
32534;DHT22;18973;48.580;8.912;2022-07-06T11:24:32;25.80;69.20
32534;DHT22;18973;48.580;8.912;2022-07-06T11:26:59;25.90;69.30
32534;DHT22;18973;48.580;8.912;2022-07-06T11:29:27;26.10;71.50
32534;DHT22;18973;48.580;8.912;2022-07-06T11:31:55;26.30;69.40
32534;DHT22;18973;48.580;8.912;2022-07-06T11:34:26;26.40;68.20
32534;DHT22;18973;48.580;8.912;2022-07-06T11:37:06;26.30;68.00
32534;DHT22;18973;48.580;8.912;2022-07-06T11:39:37;25.90;67.10
32534;DHT22;18973;48.580;8.912;2022-07-06T11:42:06;26.20;66.50
32534;DHT22;18973;48.580;8.912;2022-07-06T11:44:33;26.30;68.10
32534;DHT22;18973;48.580;8.912;2022-07-06T11:47:00;26.50;70.00
32534;DHT22;18973;48.580;8.912;2022-07-06T11:49:28;26.60;68.30
32534;DHT22;18973;48.580;8.912;2022-07-06T11:51:54;26.40;65.60
32534;DHT22;18973;48.580;8.912;2022-07-06T11:54:21;26.20;66.30
32534;DHT22;18973;48.580;8.912;2022-07-06T11:56:49;26.10;67.10
32534;DHT22;18973;48.580;8.912;2022-07-06T12:04:28;26.10;67.70
32534;DHT22;18973;48.580;8.912;2022-07-06T12:06:55;26.30;70.50
32534;DHT22;18973;48.580;8.912;2022-07-06T12:09:21;26.60;69.10
32534;DHT22;18973;48.580;8.912;2022-07-06T12:11:47;26.90;70.10
32534;DHT22;18973;48.580;8.912;2022-07-06T12:14:19;27.10;69.80
32534;DHT22;18973;48.580;8.912;2022-07-06T12:16:46;27.20;65.70
32534;DHT22;18973;48.580;8.912;2022-07-06T12:19:12;27.20;68.00
32534;DHT22;18973;48.580;8.912;2022-07-06T12:21:48;27.40;66.80
32534;DHT22;18973;48.580;8.912;2022-07-06T12:24:19;27.50;65.80
32534;DHT22;18973;48.580;8.912;2022-07-06T12:26:45;27.40;66.20
32534;DHT22;18973;48.580;8.912;2022-07-06T12:29:12;27.20;66.00
32534;DHT22;18973;48.580;8.912;2022-07-06T12:31:39;26.60;65.40
32534;DHT22;18973;48.580;8.912;2022-07-06T12:34:16;26.70;68.10
32534;DHT22;18973;48.580;8.912;2022-07-06T12:37:27;26.90;68.70
32534;DHT22;18973;48.580;8.912;2022-07-06T12:39:29;26.80;67.90
32534;DHT22;18973;48.580;8.912;2022-07-06T12:44:26;27.00;68.20
32534;DHT22;18973;48.580;8.912;2022-07-06T12:47:03;27.30;68.10
32534;DHT22;18973;48.580;8.912;2022-07-06T12:49:30;27.00;67.70
32534;DHT22;18973;48.580;8.912;2022-07-06T12:52:00;27.00;68.00
32534;DHT22;18973;48.580;8.912;2022-07-06T12:57:21;26.30;65.80
32534;DHT22;18973;48.580;8.912;2022-07-06T13:04:58;26.60;67.20
32534;DHT22;18973;48.580;8.912;2022-07-06T13:07:26;26.60;68.20
32534;DHT22;18973;48.580;8.912;2022-07-06T13:09:53;26.80;67.10
32534;DHT22;18973;48.580;8.912;2022-07-06T13:12:19;26.60;63.90
32534;DHT22;18973;48.580;8.912;2022-07-06T13:14:45;26.60;67.20
32534;DHT22;18973;48.580;8.912;2022-07-06T13:17:11;26.70;66.90
32534;DHT22;18973;48.580;8.912;2022-07-06T13:19:37;26.70;65.80
32534;DHT22;18973;48.580;8.912;2022-07-06T13:22:03;26.80;66.30
32534;DHT22;18973;48.580;8.912;2022-07-06T13:24:29;26.90;64.90
32534;DHT22;18973;48.580;8.912;2022-07-06T13:26:56;26.90;65.20
32534;DHT22;18973;48.580;8.912;2022-07-06T13:29:23;26.80;64.60
32534;DHT22;18973;48.580;8.912;2022-07-06T13:31:49;26.40;64.20
32534;DHT22;18973;48.580;8.912;2022-07-06T13:34:14;25.90;66.00
32534;DHT22;18973;48.580;8.912;2022-07-06T13:36:41;26.00;64.60
32534;DHT22;18973;48.580;8.912;2022-07-06T13:39:07;25.80;65.90
32534;DHT22;18973;48.580;8.912;2022-07-06T13:41:33;26.00;69.50
32534;DHT22;18973;48.580;8.912;2022-07-06T13:44:00;25.90;65.10
32534;DHT22;18973;48.580;8.912;2022-07-06T13:46:27;25.80;65.70
32534;DHT22;18973;48.580;8.912;2022-07-06T13:48:56;26.00;66.70
32534;DHT22;18973;48.580;8.912;2022-07-06T13:51:23;26.10;66.50
32534;DHT22;18973;48.580;8.912;2022-07-06T13:53:50;25.90;63.40
32534;DHT22;18973;48.580;8.912;2022-07-06T13:56:16;25.70;64.20
32534;DHT22;18973;48.580;8.912;2022-07-06T13:58:43;25.50;66.60
32534;DHT22;18973;48.580;8.912;2022-07-06T14:01:09;25.70;69.30
32534;DHT22;18973;48.580;8.912;2022-07-06T14:03:35;25.90;67.00
32534;DHT22;18973;48.580;8.912;2022-07-06T14:06:04;26.10;68.10
32534;DHT22;18973;48.580;8.912;2022-07-06T14:08:31;25.80;66.00
32534;DHT22;18973;48.580;8.912;2022-07-06T14:10:58;26.10;67.00
32534;DHT22;18973;48.580;8.912;2022-07-06T14:13:24;26.10;66.60
32534;DHT22;18973;48.580;8.912;2022-07-06T14:15:50;26.10;65.10
32534;DHT22;18973;48.580;8.912;2022-07-06T14:18:16;26.00;65.80
32534;DHT22;18973;48.580;8.912;2022-07-06T14:20:44;25.90;64.40
32534;DHT22;18973;48.580;8.912;2022-07-06T14:23:11;25.90;66.90
32534;DHT22;18973;48.580;8.912;2022-07-06T14:25:37;25.80;64.20
32534;DHT22;18973;48.580;8.912;2022-07-06T14:28:03;26.00;67.20
32534;DHT22;18973;48.580;8.912;2022-07-06T14:30:29;26.20;67.60
32534;DHT22;18973;48.580;8.912;2022-07-06T14:32:55;26.20;64.40
32534;DHT22;18973;48.580;8.912;2022-07-06T14:35:21;26.10;63.70
32534;DHT22;18973;48.580;8.912;2022-07-06T14:37:47;26.10;64.30
32534;DHT22;18973;48.580;8.912;2022-07-06T14:40:13;26.30;65.00
32534;DHT22;18973;48.580;8.912;2022-07-06T14:42:39;26.30;65.90
32534;DHT22;18973;48.580;8.912;2022-07-06T14:45:05;26.20;65.80
32534;DHT22;18973;48.580;8.912;2022-07-06T14:47:31;26.30;65.10
32534;DHT22;18973;48.580;8.912;2022-07-06T14:49:59;26.20;63.90
32534;DHT22;18973;48.580;8.912;2022-07-06T14:52:25;26.10;62.60
32534;DHT22;18973;48.580;8.912;2022-07-06T14:54:50;26.10;64.50
32534;DHT22;18973;48.580;8.912;2022-07-06T14:57:16;26.20;64.50
32534;DHT22;18973;48.580;8.912;2022-07-06T14:59:42;26.00;63.40
32534;DHT22;18973;48.580;8.912;2022-07-06T15:02:08;25.90;64.60
32534;DHT22;18973;48.580;8.912;2022-07-06T15:04:33;25.70;65.20
32534;DHT22;18973;48.580;8.912;2022-07-06T15:06:59;25.70;64.30
32534;DHT22;18973;48.580;8.912;2022-07-06T15:09:25;25.50;64.00
32534;DHT22;18973;48.580;8.912;2022-07-06T15:11:54;25.50;65.70
32534;DHT22;18973;48.580;8.912;2022-07-06T15:14:20;25.40;63.60
32534;DHT22;18973;48.580;8.912;2022-07-06T15:16:46;25.20;63.30
32534;DHT22;18973;48.580;8.912;2022-07-06T15:19:11;25.10;65.40
32534;DHT22;18973;48.580;8.912;2022-07-06T15:21:40;25.30;67.60
32534;DHT22;18973;48.580;8.912;2022-07-06T15:24:06;25.20;65.50
32534;DHT22;18973;48.580;8.912;2022-07-06T15:26:32;25.40;65.90
32534;DHT22;18973;48.580;8.912;2022-07-06T15:28:58;25.40;64.90
32534;DHT22;18973;48.580;8.912;2022-07-06T15:31:24;25.40;65.90
32534;DHT22;18973;48.580;8.912;2022-07-06T15:33:50;25.40;65.00
32534;DHT22;18973;48.580;8.912;2022-07-06T15:36:15;25.40;65.70
32534;DHT22;18973;48.580;8.912;2022-07-06T15:38:41;25.30;63.00
32534;DHT22;18973;48.580;8.912;2022-07-06T15:41:12;25.20;64.70
32534;DHT22;18973;48.580;8.912;2022-07-06T15:43:38;24.80;64.60
32534;DHT22;18973;48.580;8.912;2022-07-06T15:46:04;24.70;65.90
32534;DHT22;18973;48.580;8.912;2022-07-06T15:48:30;24.70;64.70
32534;DHT22;18973;48.580;8.912;2022-07-06T15:50:58;24.50;65.50
32534;DHT22;18973;48.580;8.912;2022-07-06T15:53:24;24.60;67.40
32534;DHT22;18973;48.580;8.912;2022-07-06T15:55:50;24.60;65.40
32534;DHT22;18973;48.580;8.912;2022-07-06T15:58:17;24.60;64.70
32534;DHT22;18973;48.580;8.912;2022-07-06T16:00:43;24.70;65.20